Time;durP1;ratioP1;P1;durP2;ratioP2;P2;SDS_P1;SDS_P2;PMS_P1;PMS_P2;Temp;Humidity;BMP_temperature;BMP_pressure;BME280_temperature;BME280_humidity;BME280_pressure;Samples;Min_cycle;Max_cycle;Signal;HPM_P1;HPM_P2
2022/06/03 00:03:48;;;;;;;5.10;4.70;;;18.50;86.30;;;;;;10400835;28;20211;-78
2022/06/03 00:09:27;;;;;;;5.10;4.80;;;18.50;88.00;;;;;;10394569;28;20270;-77
2022/06/03 00:14:42;;;;;;;5.13;4.57;;;18.50;88.00;;;;;;10376066;28;20655;-78
2022/06/03 00:19:56;;;;;;;6.47;4.80;;;18.40;87.90;;;;;;10367374;28;20618;-78
2022/06/03 00:25:17;;;;;;;4.83;4.53;;;18.30;88.00;;;;;;10367466;28;20238;-79
2022/06/03 00:30:32;;;;;;;5.50;5.00;;;18.30;88.50;;;;;;10370562;28;20214;-78
2022/06/03 00:35:51;;;;;;;4.33;4.00;;;18.30;88.80;;;;;;10367074;28;20197;-78
2022/06/03 00:41:15;;;;;;;5.30;4.93;;;18.20;88.30;;;;;;10375251;28;20302;-78
2022/06/03 00:46:24;;;;;;;4.93;4.53;;;18.20;89.70;;;;;;10383365;28;20286;-78
2022/06/03 00:51:50;;;;;;;4.70;4.40;;;18.20;88.80;;;;;;10374823;28;20651;-77
2022/06/03 00:57:15;;;;;;;4.10;3.90;;;18.20;89.30;;;;;;10365627;28;20194;-78
2022/06/03 01:02:30;;;;;;;4.50;4.10;;;18.00;89.10;;;;;;10373276;28;20305;-78
2022/06/03 01:07:45;;;;;;;5.47;5.07;;;18.00;89.80;;;;;;10394799;28;20221;-78
2022/06/03 01:13:20;;;;;;;4.97;4.57;;;17.90;90.20;;;;;;10374833;28;20234;-78
2022/06/03 01:18:36;;;;;;;4.70;4.40;;;18.10;90.10;;;;;;10387723;28;20563;-78
2022/06/03 01:24:11;;;;;;;4.57;4.37;;;17.90;90.00;;;;;;10394427;28;20293;-78
2022/06/03 01:29:39;;;;;;;5.73;4.93;;;17.90;90.30;;;;;;10376903;28;20721;-77
2022/06/03 01:34:56;;;;;;;5.17;4.87;;;18.00;90.00;;;;;;10394951;28;20214;-77
2022/06/03 01:40:24;;;;;;;5.10;4.70;;;17.80;90.10;;;;;;10374078;28;20221;-77
2022/06/03 01:45:59;;;;;;;4.20;4.00;;;17.80;90.50;;;;;;10396931;28;20221;-77
2022/06/03 01:51:46;;;;;;;4.63;4.40;;;17.80;90.60;;;;;;10397424;28;20214;-78
2022/06/03 01:57:15;;;;;;;5.20;4.80;;;17.90;90.70;;;;;;10383241;28;20205;-78
2022/06/03 02:02:41;;;;;;;4.87;4.57;;;17.80;90.40;;;;;;10397729;28;20765;-77
2022/06/03 02:08:05;;;;;;;4.83;4.53;;;17.80;90.70;;;;;;10385474;28;20685;-77
2022/06/03 02:13:30;;;;;;;4.63;4.33;;;17.70;90.60;;;;;;10395509;28;20230;-77
2022/06/03 02:19:28;;;;;;;3.97;3.77;;;17.70;90.80;;;;;;10389040;28;20240;-77
2022/06/03 02:25:01;;;;;;;5.60;4.93;;;17.80;90.50;;;;;;10402904;28;20629;-77
2022/06/03 02:30:36;;;;;;;4.93;4.67;;;17.60;90.40;;;;;;10400324;28;20256;-77
2022/06/03 02:36:03;;;;;;;5.20;4.90;;;17.50;90.60;;;;;;10409141;28;20202;-78
2022/06/03 02:41:31;;;;;;;5.47;4.97;;;17.60;91.00;;;;;;10401513;28;20231;-77
2022/06/03 02:47:08;;;;;;;5.10;4.77;;;17.60;91.10;;;;;;10376276;28;20209;-77
2022/06/03 02:52:32;;;;;;;5.63;5.20;;;17.50;90.90;;;;;;10391716;28;20222;-77
2022/06/03 02:58:12;;;;;;;5.13;4.83;;;17.40;90.80;;;;;;10402475;28;20712;-77
2022/06/03 03:03:52;;;;;;;6.07;5.57;;;17.50;91.10;;;;;;10335594;28;20229;-77
2022/06/03 03:09:20;;;;;;;6.00;5.50;;;17.60;91.10;;;;;;10395866;28;20256;-78
2022/06/03 03:14:42;;;;;;;5.50;5.10;;;17.50;91.30;;;;;;10406886;28;20222;-78
2022/06/03 03:20:08;;;;;;;5.37;4.87;;;17.60;91.30;;;;;;10411110;28;20617;-78
2022/06/03 03:25:28;;;;;;;5.50;5.00;;;17.70;91.30;;;;;;10399942;28;20293;-78
2022/06/03 03:30:37;;;;;;;6.27;5.30;;;17.70;91.30;;;;;;10397200;28;20245;-79
2022/06/03 03:36:14;;;;;;;5.30;4.83;;;17.80;91.50;;;;;;10391327;28;20273;-78
2022/06/03 03:41:53;;;;;;;4.70;4.30;;;17.70;91.40;;;;;;10395930;28;20261;-78
2022/06/03 03:47:31;;;;;;;5.60;5.20;;;17.70;91.40;;;;;;10405972;28;20202;-78
2022/06/03 03:53:08;;;;;;;4.70;4.30;;;17.70;91.70;;;;;;10406293;28;20225;-78
2022/06/03 03:58:42;;;;;;;5.60;5.20;;;17.70;91.70;;;;;;10381373;28;20202;-77
2022/06/03 04:04:15;;;;;;;5.73;5.33;;;17.70;91.30;;;;;;10375369;28;20229;-77
2022/06/03 04:09:36;;;;;;;5.93;5.40;;;17.70;91.30;;;;;;10387232;28;20197;-78
2022/06/03 04:15:12;;;;;;;5.60;5.10;;;17.70;91.70;;;;;;10406720;28;20296;-78
2022/06/03 04:20:52;;;;;;;6.03;5.63;;;17.60;91.50;;;;;;10408953;28;20799;-78
2022/06/03 04:26:24;;;;;;;5.77;5.03;;;17.50;91.80;;;;;;10412558;28;20244;-78
2022/06/03 04:32:06;;;;;;;5.87;5.47;;;17.50;91.90;;;;;;10388240;28;20309;-78
2022/06/03 04:37:59;;;;;;;5.70;5.30;;;17.60;92.10;;;;;;10406455;28;20211;-78
2022/06/03 04:43:38;;;;;;;7.27;6.60;;;17.70;91.80;;;;;;10383717;28;20218;-78
2022/06/03 04:49:16;;;;;;;7.17;6.67;;;17.60;91.90;;;;;;10397093;28;20288;-76
2022/06/03 04:55:01;;;;;;;7.00;6.50;;;17.60;92.30;;;;;;10401471;28;20247;-77
2022/06/03 05:00:25;;;;;;;7.40;6.80;;;17.60;92.20;;;;;;10366495;28;20232;-77
2022/06/03 05:05:56;;;;;;;6.60;6.10;;;17.70;92.60;;;;;;10391605;28;20298;-78
2022/06/03 05:11:50;;;;;;;6.70;6.20;;;17.80;92.40;;;;;;10390371;28;20309;-77
2022/06/03 05:17:21;;;;;;;8.27;7.47;;;17.90;92.80;;;;;;10382986;28;20202;-77
2022/06/03 05:22:52;;;;;;;6.90;6.40;;;17.90;92.40;;;;;;10407079;28;20252;-77
2022/06/03 05:28:30;;;;;;;7.30;6.73;;;18.00;92.60;;;;;;10395633;28;20266;-77
2022/06/03 05:33:59;;;;;;;6.70;6.10;;;18.10;92.40;;;;;;10406208;28;20341;-76
2022/06/03 05:39:35;;;;;;;7.33;6.83;;;18.10;92.10;;;;;;10408203;28;20285;-76
2022/06/03 05:44:56;;;;;;;12.63;7.27;;;18.20;92.00;;;;;;10406990;28;20194;-77
2022/06/03 05:50:04;;;;;;;8.60;7.03;;;18.30;92.50;;;;;;10402935;28;20241;-76
2022/06/03 05:55:23;;;;;;;7.30;6.60;;;18.50;92.30;;;;;;10402547;28;20731;-77
2022/06/03 06:00:39;;;;;;;8.00;7.40;;;18.70;92.60;;;;;;10389510;28;20663;-77
2022/06/03 06:05:51;;;;;;;8.50;7.77;;;18.80;91.80;;;;;;10395731;28;20205;-76
2022/06/03 06:11:03;;;;;;;8.13;7.53;;;18.90;92.10;;;;;;10402031;28;20252;-76
2022/06/03 06:16:09;;;;;;;8.47;7.67;;;19.00;92.40;;;;;;10396736;28;20205;-76
2022/06/03 06:21:30;;;;;;;10.63;9.60;;;19.20;92.50;;;;;;10396891;28;20218;-77
2022/06/03 06:27:01;;;;;;;9.10;8.17;;;19.20;91.90;;;;;;10409904;28;20209;-77
2022/06/03 06:32:30;;;;;;;7.57;7.07;;;19.40;91.60;;;;;;10393824;28;20712;-76
2022/06/03 06:37:55;;;;;;;7.80;7.30;;;19.50;91.50;;;;;;10393408;28;20288;-77
2022/06/03 06:43:10;;;;;;;9.13;8.30;;;19.70;91.60;;;;;;10391331;28;20555;-77
2022/06/03 06:48:19;;;;;;;6.70;6.20;;;20.00;91.40;;;;;;10398779;28;20297;-77
2022/06/03 06:53:32;;;;;;;7.30;6.70;;;20.30;91.00;;;;;;10401141;28;20253;-77
2022/06/03 06:58:44;;;;;;;9.70;8.10;;;20.70;90.80;;;;;;10396704;28;20198;-77
2022/06/03 07:03:56;;;;;;;6.97;6.37;;;21.00;89.90;;;;;;10404435;28;20904;-77
2022/06/03 07:09:24;;;;;;;9.03;8.13;;;21.20;89.60;;;;;;10400093;28;20229;-77
2022/06/03 07:14:32;;;;;;;7.70;7.00;;;21.50;88.60;;;;;;10403625;28;20723;-76
2022/06/03 07:19:51;;;;;;;6.43;5.90;;;21.70;88.60;;;;;;10406924;28;20275;-76
2022/06/03 07:25:01;;;;;;;5.80;5.33;;;21.90;88.20;;;;;;10406775;28;20198;-76
2022/06/03 07:30:11;;;;;;;6.67;6.03;;;22.20;88.10;;;;;;10395050;28;20218;-77
2022/06/03 07:35:24;;;;;;;6.43;5.60;;;22.50;87.10;;;;;;10372216;28;20223;-76
2022/06/03 07:40:30;;;;;;;6.93;6.33;;;22.90;87.00;;;;;;10393988;28;20298;-76
2022/06/03 07:45:43;;;;;;;5.70;5.30;;;23.20;86.40;;;;;;10414250;28;20620;-76
2022/06/03 07:50:52;;;;;;;5.50;5.20;;;23.70;86.50;;;;;;10398388;28;20651;-78
2022/06/03 07:55:59;;;;;;;6.23;5.83;;;24.20;84.90;;;;;;10404581;28;20300;-77
2022/06/03 08:01:02;;;;;;;5.50;5.10;;;25.10;82.90;;;;;;10406674;28;20225;-77
2022/06/03 08:06:08;;;;;;;5.30;4.80;;;26.20;80.70;;;;;;10406702;28;20194;-77
2022/06/03 08:11:27;;;;;;;5.50;5.00;;;26.70;78.50;;;;;;10413663;28;20226;-77
2022/06/03 08:16:49;;;;;;;5.53;5.23;;;27.30;76.90;;;;;;10414411;28;20213;-76
2022/06/03 08:21:57;;;;;;;5.70;5.30;;;27.90;75.00;;;;;;10407786;28;20222;-77
2022/06/03 08:27:04;;;;;;;6.53;6.00;;;28.50;72.90;;;;;;10398636;28;20197;-77
2022/06/03 08:32:12;;;;;;;6.43;5.83;;;28.90;71.20;;;;;;10411890;28;20309;-77
2022/06/03 08:37:19;;;;;;;5.57;4.83;;;29.20;70.30;;;;;;10412982;28;20225;-78
2022/06/03 08:42:29;;;;;;;5.30;5.00;;;29.60;69.30;;;;;;10396764;28;20218;-78
2022/06/03 08:47:39;;;;;;;7.00;5.97;;;29.80;68.70;;;;;;10389413;28;20621;-78
2022/06/03 08:52:54;;;;;;;5.03;4.80;;;30.00;68.10;;;;;;10397513;28;20729;-78
2022/06/03 08:58:02;;;;;;;5.50;5.20;;;30.30;67.40;;;;;;10368994;28;20296;-77
2022/06/03 09:03:11;;;;;;;4.37;3.97;;;30.40;66.20;;;;;;10375656;28;20222;-77
2022/06/03 09:08:19;;;;;;;4.67;4.10;;;30.40;65.70;;;;;;10401254;28;20205;-77
2022/06/03 09:13:26;;;;;;;4.60;4.20;;;30.80;64.90;;;;;;10380497;28;20568;-77
2022/06/03 09:18:35;;;;;;;5.43;4.97;;;31.00;63.20;;;;;;10380410;28;20648;-77
2022/06/03 09:23:43;;;;;;;5.33;5.03;;;31.20;62.70;;;;;;10371898;28;20661;-77
2022/06/03 09:28:50;;;;;;;6.30;5.20;;;31.70;61.20;;;;;;10368579;28;20208;-77
2022/06/03 09:33:58;;;;;;;4.97;4.70;;;31.90;61.20;;;;;;10369110;28;20225;-77
2022/06/03 09:39:03;;;;;;;5.20;4.87;;;32.40;60.90;;;;;;10367959;28;20199;-77
2022/06/03 09:44:11;;;;;;;5.10;4.73;;;33.10;59.60;;;;;;10374045;28;20312;-77
2022/06/03 09:49:19;;;;;;;5.33;4.93;;;34.00;57.30;;;;;;10371877;28;20219;-78
2022/06/03 09:54:24;;;;;;;4.93;3.80;;;35.30;56.20;;;;;;10388032;28;20216;-78
2022/06/03 09:59:28;;;;;;;4.80;4.50;;;36.30;55.70;;;;;;10381315;28;20272;-78
2022/06/03 10:04:32;;;;;;;4.57;4.27;;;37.10;54.90;;;;;;10367301;28;20212;-78
2022/06/03 10:20:18;;;;;;;4.17;3.87;;;38.10;51.30;;;;;;10409008;28;20577;-77
2022/06/03 10:25:20;;;;;;;4.70;4.40;;;36.80;51.80;;;;;;10395391;28;20613;-77
2022/06/03 10:30:30;;;;;;;5.00;4.70;;;35.30;53.70;;;;;;10398879;28;20308;-78
2022/06/03 10:35:38;;;;;;;4.83;4.53;;;33.90;55.20;;;;;;10404618;28;20229;-77
2022/06/03 10:40:43;;;;;;;5.17;4.67;;;32.70;56.90;;;;;;10406817;28;20776;-78
2022/06/03 10:45:45;;;;;;;4.40;4.10;;;32.00;58.80;;;;;;10408075;28;20198;-77
2022/06/03 10:50:49;;;;;;;4.03;3.73;;;31.70;58.50;;;;;;10403956;28;20312;-77
2022/06/03 11:01:21;;;;;;;5.10;4.80;;;31.10;59.60;;;;;;10388543;28;20220;-77
2022/06/03 11:06:28;;;;;;;6.00;5.50;;;30.90;60.50;;;;;;10403201;28;20582;-77
2022/06/03 11:11:41;;;;;;;4.77;4.47;;;30.60;60.30;;;;;;10413094;28;20697;-77
2022/06/03 11:16:50;;;;;;;5.33;4.77;;;30.20;62.00;;;;;;10416696;28;20205;-77
2022/06/03 11:22:17;;;;;;;5.17;4.77;;;29.70;62.20;;;;;;10408867;28;20257;-77
2022/06/03 11:27:23;;;;;;;4.67;4.33;;;29.10;61.80;;;;;;10414197;28;20212;-77
2022/06/03 11:32:27;;;;;;;6.63;5.20;;;28.70;64.20;;;;;;10408746;28;20221;-77
2022/06/03 11:37:35;;;;;;;5.60;4.43;;;28.30;64.60;;;;;;10416558;28;20209;-77
2022/06/03 11:42:46;;;;;;;3.90;3.70;;;28.00;66.10;;;;;;10411493;28;20309;-77
2022/06/03 11:47:55;;;;;;;5.20;4.90;;;27.60;68.20;;;;;;10412025;28;20198;-77
2022/06/03 11:52:59;;;;;;;4.50;4.20;;;27.40;70.10;;;;;;10410030;28;20305;-77
2022/06/03 11:58:05;;;;;;;4.60;4.30;;;27.20;73.20;;;;;;10411399;28;20194;-77
2022/06/03 12:03:33;;;;;;;5.37;4.90;;;27.10;73.70;;;;;;10411406;28;20222;-77
2022/06/03 12:08:49;;;;;;;5.40;4.77;;;27.10;74.10;;;;;;10404238;28;20845;-77
2022/06/03 12:14:12;;;;;;;5.00;4.70;;;27.10;73.50;;;;;;10411734;28;20392;-77
2022/06/03 12:19:37;;;;;;;4.33;3.97;;;27.10;73.60;;;;;;10412928;28;20288;-77
2022/06/03 12:24:48;;;;;;;5.10;4.73;;;27.30;72.80;;;;;;10414154;28;20603;-77
2022/06/03 12:30:36;;;;;;;4.57;4.20;;;27.40;72.10;;;;;;10408545;28;20623;-77
2022/06/03 12:35:59;;;;;;;4.13;3.83;;;27.50;73.60;;;;;;10405519;28;20666;-77
2022/06/03 12:41:04;;;;;;;4.70;4.40;;;27.50;74.10;;;;;;10409574;28;20228;-77
2022/06/03 12:46:08;;;;;;;4.53;4.23;;;27.40;75.00;;;;;;10411735;28;20599;-77
2022/06/03 12:51:20;;;;;;;4.60;4.30;;;27.30;75.20;;;;;;10414462;28;20228;-77
2022/06/03 12:56:41;;;;;;;4.07;3.80;;;27.20;74.20;;;;;;10406798;28;20225;-77
2022/06/03 13:01:48;;;;;;;4.70;4.30;;;27.00;75.50;;;;;;10408565;28;20222;-77
2022/06/03 13:07:15;;;;;;;5.10;4.63;;;26.80;76.30;;;;;;10415126;28;20294;-77
2022/06/03 13:12:27;;;;;;;4.27;3.87;;;26.60;77.50;;;;;;10411786;28;20747;-77
2022/06/03 13:17:59;;;;;;;4.70;4.40;;;26.40;78.60;;;;;;10412938;28;20202;-77
2022/06/03 13:23:23;;;;;;;4.87;4.47;;;26.30;80.30;;;;;;10407260;28;20551;-77
2022/06/03 13:28:38;;;;;;;5.40;5.00;;;26.40;81.90;;;;;;10410026;28;20202;-77
2022/06/03 13:34:14;;;;;;;9.20;5.20;;;26.40;82.10;;;;;;10405645;28;20281;-77
2022/06/03 13:39:50;;;;;;;5.47;4.97;;;26.20;82.00;;;;;;10410449;28;20206;-77
2022/06/03 13:45:20;;;;;;;6.37;5.77;;;26.00;82.50;;;;;;10399230;28;20194;-77
2022/06/03 13:50:32;;;;;;;7.60;5.23;;;25.80;82.90;;;;;;10406699;28;20713;-77
2022/06/03 13:55:50;;;;;;;5.90;5.30;;;25.80;84.60;;;;;;10398627;28;20249;-77
2022/06/03 14:01:02;;;;;;;6.53;6.00;;;25.80;86.00;;;;;;10410306;28;20221;-77
2022/06/03 14:06:08;;;;;;;5.17;4.80;;;25.90;86.80;;;;;;10400119;28;20285;-77
2022/06/03 14:11:15;;;;;;;6.23;5.73;;;25.80;86.10;;;;;;10405814;28;20592;-77
2022/06/03 14:16:26;;;;;;;4.90;4.60;;;25.80;85.00;;;;;;10405685;28;20724;-77
2022/06/03 14:21:39;;;;;;;5.10;4.70;;;25.80;85.50;;;;;;10406927;28;20213;-77
2022/06/03 14:26:47;;;;;;;5.50;5.00;;;25.80;84.90;;;;;;10411834;28;20647;-77
2022/06/03 14:31:54;;;;;;;7.33;5.03;;;25.70;84.40;;;;;;10402694;28;20309;-77
2022/06/03 14:36:59;;;;;;;5.70;5.30;;;25.50;83.60;;;;;;10404003;28;20222;-77
2022/06/03 14:42:07;;;;;;;6.07;5.60;;;25.50;84.10;;;;;;10406682;28;20217;-77
2022/06/03 14:47:18;;;;;;;5.53;5.07;;;25.40;84.40;;;;;;10397047;28;20201;-77
2022/06/03 14:52:25;;;;;;;5.40;4.97;;;25.50;83.70;;;;;;10409222;28;20300;-77
2022/06/03 14:57:35;;;;;;;5.77;5.37;;;25.70;84.90;;;;;;10403775;28;20228;-77
2022/06/03 15:02:48;;;;;;;4.57;4.37;;;25.70;83.00;;;;;;10407380;28;20223;-77
2022/06/03 15:07:57;;;;;;;5.70;5.30;;;25.60;82.90;;;;;;10398864;28;20210;-77
2022/06/03 15:13:00;;;;;;;5.23;4.90;;;25.60;82.80;;;;;;10407255;28;20230;-77
2022/06/03 15:18:15;;;;;;;4.20;4.00;;;25.70;83.60;;;;;;10409739;28;20646;-77
2022/06/03 15:23:17;;;;;;;5.53;5.03;;;25.70;82.20;;;;;;10403820;28;20304;-77
2022/06/03 15:28:21;;;;;;;4.70;4.40;;;25.70;82.20;;;;;;10405846;28;20202;-77
2022/06/03 15:33:28;;;;;;;4.70;4.40;;;25.70;81.50;;;;;;10406011;28;20250;-77
2022/06/03 15:38:41;;;;;;;5.87;5.37;;;25.60;81.80;;;;;;10397746;28;20469;-77
2022/06/03 15:43:47;;;;;;;5.33;4.83;;;25.60;81.70;;;;;;10407030;28;20242;-77
2022/06/03 15:48:55;;;;;;;6.73;6.07;;;25.60;82.80;;;;;;10402757;28;20210;-77
2022/06/03 15:54:00;;;;;;;5.57;5.17;;;25.70;82.60;;;;;;10403094;28;20253;-77
2022/06/03 15:59:14;;;;;;;5.53;5.03;;;25.60;83.40;;;;;;10410893;28;20202;-77
2022/06/03 16:04:51;;;;;;;6.33;5.73;;;25.60;82.80;;;;;;10415584;28;20770;-77
2022/06/03 16:10:02;;;;;;;6.03;5.63;;;25.50;83.30;;;;;;10407815;28;20730;-77
2022/06/03 16:15:20;;;;;;;6.87;6.37;;;25.40;83.00;;;;;;10410525;28;20688;-77
2022/06/03 16:20:35;;;;;;;5.93;5.53;;;25.40;83.50;;;;;;10411358;28;20312;-77
2022/06/03 16:25:49;;;;;;;7.37;6.87;;;25.50;84.50;;;;;;10411801;28;20198;-77
2022/06/03 16:30:59;;;;;;;5.67;5.23;;;25.50;84.90;;;;;;10414030;28;20272;-77
2022/06/03 16:36:11;;;;;;;6.63;6.13;;;25.50;84.40;;;;;;10411499;28;20255;-77
2022/06/03 16:41:20;;;;;;;5.63;5.30;;;25.40;84.50;;;;;;10409881;28;20344;-77
2022/06/03 16:46:31;;;;;;;6.33;5.93;;;25.20;84.90;;;;;;10410986;28;20226;-76
2022/06/03 16:51:41;;;;;;;8.80;6.60;;;25.20;85.80;;;;;;10411844;28;20305;-77
2022/06/03 16:56:43;;;;;;;6.30;5.73;;;25.10;85.40;;;;;;10411691;28;20237;-77
2022/06/03 17:01:48;;;;;;;6.90;6.30;;;25.10;85.80;;;;;;10406462;28;20604;-77
2022/06/03 17:06:54;;;;;;;6.87;6.33;;;25.00;85.60;;;;;;10403296;28;20240;-77
2022/06/03 17:11:58;;;;;;;6.33;5.93;;;24.90;85.40;;;;;;10409011;28;20766;-77
2022/06/03 17:17:04;;;;;;;9.83;7.00;;;24.80;85.10;;;;;;10411040;28;20309;-77
2022/06/03 17:22:28;;;;;;;6.07;5.67;;;24.80;85.20;;;;;;10413022;28;20226;-77
2022/06/03 17:27:45;;;;;;;6.57;6.17;;;24.70;85.10;;;;;;10407215;28;20206;-77
2022/06/03 17:33:03;;;;;;;12.93;11.90;;;24.60;85.50;;;;;;10404024;28;20708;-77
2022/06/03 17:38:21;;;;;;;13.97;12.90;;;24.40;92.40;;;;;;10408979;28;20288;-76
2022/06/03 17:43:40;;;;;;;16.10;15.07;;;23.80;94.30;;;;;;10415294;28;20279;-76
2022/06/03 17:48:50;;;;;;;18.87;17.43;;;23.30;97.00;;;;;;10410995;28;20209;-76
2022/06/03 17:59:33;;;;;;;22.97;21.33;;;22.60;99.60;;;;;;10382658;28;20305;-77
2022/06/03 18:04:52;;;;;;;24.70;22.70;;;22.10;99.90;;;;;;10387028;28;20191;-77
2022/06/03 18:15:06;;;;;;;23.33;21.77;;;21.60;99.90;;;;;;10421441;28;20225;-81
2022/06/03 18:20:12;;;;;;;22.97;21.17;;;21.40;99.90;;;;;;10426837;28;20232;-83
2022/06/03 18:25:28;;;;;;;24.17;22.50;;;21.20;99.90;;;;;;10440107;28;20197;-82
2022/06/03 18:30:37;;;;;;;22.60;20.93;;;21.10;99.90;;;;;;10454824;28;20212;-82
2022/06/03 18:35:56;;;;;;;22.23;20.67;;;21.00;99.90;;;;;;10458770;28;20719;-82
2022/06/03 18:41:13;;;;;;;21.63;20.03;;;20.90;99.90;;;;;;10437591;28;20213;-79
2022/06/03 18:46:27;;;;;;;22.30;20.70;;;20.70;99.90;;;;;;10451570;28;20216;-81
2022/06/03 18:51:45;;;;;;;21.63;20.17;;;20.70;99.90;;;;;;10458474;28;20224;-80
2022/06/03 18:57:02;;;;;;;22.77;21.07;;;20.60;99.90;;;;;;10461125;28;20274;-85
2022/06/03 19:02:13;;;;;;;20.13;18.73;;;20.60;99.90;;;;;;10446982;28;20240;-84
2022/06/03 19:07:28;;;;;;;18.90;17.50;;;20.60;99.90;;;;;;10444817;28;20270;-82
2022/06/03 19:12:43;;;;;;;20.83;19.10;;;20.50;99.90;;;;;;10436122;28;20236;-82
2022/06/03 19:18:05;;;;;;;20.80;19.20;;;20.30;99.90;;;;;;10458886;28;20220;-80
2022/06/03 19:23:39;;;;;;;22.73;20.80;;;20.30;99.90;;;;;;10414645;28;20701;-81
2022/06/03 19:28:44;;;;;;;19.77;18.37;;;20.20;99.90;;;;;;10423249;28;20204;-80
2022/06/03 19:33:57;;;;;;;18.37;16.87;;;20.30;99.90;;;;;;10432934;28;20616;-81
2022/06/03 19:39:13;;;;;;;17.67;16.47;;;20.20;99.90;;;;;;10444218;28;20201;-80
2022/06/03 19:44:48;;;;;;;18.10;16.90;;;20.10;99.90;;;;;;10476277;28;20238;-78
2022/06/03 19:50:03;;;;;;;18.20;16.80;;;20.10;99.90;;;;;;10448454;28;20207;-78
2022/06/03 19:55:12;;;;;;;18.37;16.97;;;20.00;99.90;;;;;;10448358;28;20689;-79
2022/06/03 20:00:25;;;;;;;17.00;15.33;;;20.00;99.90;;;;;;10458368;28;20233;-82
2022/06/03 20:05:31;;;;;;;15.90;14.80;;;20.00;99.90;;;;;;10442446;28;20196;-80
2022/06/03 20:10:36;;;;;;;15.40;14.10;;;19.90;99.90;;;;;;10442533;28;20262;-81
2022/06/03 20:15:43;;;;;;;13.40;12.30;;;20.00;99.90;;;;;;10447333;28;20293;-80
2022/06/03 20:20:56;;;;;;;12.40;11.53;;;20.00;99.90;;;;;;10459611;28;20229;-81
2022/06/03 20:26:07;;;;;;;12.93;11.93;;;20.10;99.90;;;;;;10458432;28;20201;-79
2022/06/03 20:31:16;;;;;;;11.27;10.33;;;20.10;99.90;;;;;;10445311;28;20217;-80
2022/06/03 20:36:30;;;;;;;13.70;12.50;;;20.10;99.90;;;;;;10460547;28;20235;-79
2022/06/03 20:41:43;;;;;;;11.30;10.30;;;20.20;99.90;;;;;;10466275;28;20315;-79
2022/06/03 20:46:55;;;;;;;10.90;10.10;;;20.10;99.90;;;;;;10453502;28;20201;-80
2022/06/03 20:52:07;;;;;;;11.83;10.93;;;20.10;99.90;;;;;;10457964;28;20233;-80
2022/06/03 20:57:15;;;;;;;12.90;11.70;;;20.10;99.90;;;;;;10462133;28;20233;-79
2022/06/03 21:02:26;;;;;;;11.03;10.23;;;20.00;99.90;;;;;;10454902;28;20224;-80
2022/06/03 21:12:49;;;;;;;11.33;10.53;;;20.20;99.90;;;;;;10443501;28;20229;-80
2022/06/03 21:17:52;;;;;;;11.73;10.83;;;20.30;99.90;;;;;;10454859;28;20311;-80
2022/06/03 21:23:11;;;;;;;11.93;10.97;;;20.30;99.90;;;;;;10458990;28;20225;-80
2022/06/03 21:28:16;;;;;;;12.23;11.43;;;20.30;99.90;;;;;;10451719;28;20199;-80
2022/06/03 21:33:22;;;;;;;12.67;11.67;;;20.10;99.90;;;;;;10431075;28;20252;-78
2022/06/03 21:38:34;;;;;;;11.37;10.57;;;20.00;99.90;;;;;;10464979;28;20213;-80
2022/06/03 21:43:43;;;;;;;10.80;10.00;;;19.80;99.90;;;;;;10480618;28;20780;-79
2022/06/03 21:48:58;;;;;;;11.43;10.40;;;19.70;99.90;;;;;;10440530;28;20611;-80
2022/06/03 21:54:15;;;;;;;9.93;9.23;;;19.80;99.90;;;;;;10446524;28;20591;-80
2022/06/03 21:59:38;;;;;;;11.53;10.63;;;19.60;99.90;;;;;;10439807;28;20205;-82
2022/06/03 22:04:41;;;;;;;10.30;9.60;;;19.50;99.90;;;;;;10454493;28;20217;-79
2022/06/03 22:09:44;;;;;;;10.40;9.63;;;19.40;99.90;;;;;;10454065;28;20193;-82
2022/06/03 22:14:47;;;;;;;10.30;9.40;;;19.30;99.90;;;;;;10445143;28;20225;-79
2022/06/03 22:19:49;;;;;;;10.40;9.60;;;19.20;99.90;;;;;;10457681;28;20208;-80
2022/06/03 22:24:52;;;;;;;10.73;9.63;;;19.40;99.90;;;;;;10467259;28;20217;-80
2022/06/03 22:30:00;;;;;;;10.13;9.43;;;19.50;99.90;;;;;;10465388;28;20239;-80
2022/06/03 22:35:10;;;;;;;10.13;9.10;;;19.50;99.90;;;;;;10462425;28;20248;-80
2022/06/03 22:40:20;;;;;;;9.60;9.00;;;19.50;99.90;;;;;;10462051;28;20254;-82
2022/06/03 22:45:22;;;;;;;10.43;9.63;;;19.50;99.90;;;;;;10456787;28;20629;-79
2022/06/03 22:50:24;;;;;;;9.77;9.07;;;19.50;99.90;;;;;;10464131;28;20214;-79
2022/06/03 22:55:27;;;;;;;9.40;8.70;;;19.30;99.90;;;;;;10439448;28;20221;-79
2022/06/03 23:00:30;;;;;;;9.83;9.10;;;19.30;99.90;;;;;;10451001;28;20224;-79
2022/06/03 23:05:32;;;;;;;10.07;9.27;;;19.40;99.90;;;;;;10462259;28;20236;-79
2022/06/03 23:10:35;;;;;;;10.40;9.57;;;19.40;99.90;;;;;;10466125;28;20611;-79
2022/06/03 23:15:38;;;;;;;10.80;10.00;;;19.40;99.90;;;;;;10470587;28;20380;-82
2022/06/03 23:20:42;;;;;;;12.50;11.43;;;19.40;99.90;;;;;;10467688;28;20647;-80
2022/06/03 23:25:47;;;;;;;11.90;11.00;;;19.40;99.90;;;;;;10463641;28;20205;-79
2022/06/03 23:30:49;;;;;;;12.00;11.00;;;19.40;99.90;;;;;;10469018;28;20228;-80
2022/06/03 23:35:52;;;;;;;14.33;13.03;;;19.40;99.90;;;;;;10463410;28;20237;-80
2022/06/03 23:40:56;;;;;;;14.10;12.73;;;19.40;99.90;;;;;;10469981;28;20258;-81
2022/06/03 23:45:58;;;;;;;12.47;11.53;;;19.20;99.90;;;;;;10463314;28;20247;-82
2022/06/03 23:51:01;;;;;;;12.97;11.97;;;19.30;99.90;;;;;;10469958;28;20225;-80
2022/06/03 23:56:05;;;;;;;15.10;13.73;;;19.20;99.90;;;;;;10458940;28;20227;-81
